Paramount Helsinki — 2CWB3 — position and weather

sailwx.info

Track history (hours):
 
Tides and Currents Weather Stations Pressure Air Temp Water Temp Dewpoint Dewpoint Depression Visibility Wind Speed Wind Dir Waves Ship Positions

Paramount Helsinki

Last reported at 2016-Jun-10 00:29 UTC. Time now 2016-Jun-30 21:21 UTC.
Position N 28°58' W 093°32'.
Warning: this ship's position is 20 days out of date.

Length 250 m; draft 9 m.

Type: Ship. MMSI: 235076275.

Date/timePositionNaut miles runAvg speedWind from/ knotsBaromVisibWave heightAir tempDewpointWater temp
2016-Jun-10 00:29N 28°58' W 093°32'1913.4
2016-Jun-09 23:05N 29°15' W 093°41'2911.5
2016-Jun-09 20:33N 29°43' W 093°51'8 8.1
2016-Jun-09 19:31N 29°49' W 093°58'7 7.7
2016-Jun-09 18:33N 29°55' W 093°53'6 4.7
2016-Jun-09 17:19N 29°60' W 093°57'3 0.1
2016-Jun-08 13:33N 30°01' W 093°60'0 0.0
2016-Jun-08 12:33N 30°01' W 093°60'0 0.0
2016-Jun-08 11:33N 30°01' W 093°60'0 0.0
2016-Jun-08 10:30N 30°01' W 093°60'0 0.0
2016-Jun-08 09:23N 30°01' W 093°60'0 0.0
2016-Jun-08 06:27N 30°01' W 093°60'0 0.0
2016-Jun-08 04:29N 30°01' W 093°60'0 0.0
2016-Jun-08 01:05N 30°01' W 093°60'0 0.0
2016-Jun-08 00:30N 30°01' W 093°60'2 2.4
2016-Jun-07 23:33N 30°00' W 093°57'5 4.6
2016-Jun-07 22:33N 29°59' W 093°52'5 5.5
2016-Jun-07 21:33N 29°54' W 093°54'6 5.7
2016-Jun-07 20:32N 29°48' W 093°57'7 7.0
2016-Jun-07 19:29N 29°43' W 093°52'30 1.0
2016-Jun-06 13:29N 29°14' W 093°43'0 0.0
2016-Jun-06 12:20N 29°14' W 093°43'  
2016-Jun-03 06:26N 29°14' W 093°43'0 0.0
2016-Jun-03 05:26N 29°14' W 093°43'0 0.0
2016-Jun-03 04:32N 29°14' W 093°43'0 0.1
2016-Jun-03 03:32N 29°14' W 093°43'  
Track history (hours):
 
Tides and Currents Weather Stations Pressure Air Temp Water Temp Dewpoint Dewpoint Depression Visibility Wind Speed Wind Dir Waves Ship Positions

Paramount Helsinki

Last reported at 2016-Jun-10 00:29 UTC. Time now 2016-Jun-30 21:21 UTC.
Position N 28°58' W 093°32'.
Warning: this ship's position is 20 days out of date.

Length 250 m; draft 9 m.

Type: Ship. MMSI: 235076275.

Date/timePositionNaut miles runAvg speedWind from/ knotsBaromVisibWave heightAir tempDewpointWater temp
2016-Jun-10 00:29N 28°58' W 093°32'1913.4
2016-Jun-09 23:05N 29°15' W 093°41'2911.5
2016-Jun-09 20:33N 29°43' W 093°51'8 8.1
2016-Jun-09 19:31N 29°49' W 093°58'7 7.7
2016-Jun-09 18:33N 29°55' W 093°53'6 4.7
2016-Jun-09 17:19N 29°60' W 093°57'3 0.1
2016-Jun-08 13:33N 30°01' W 093°60'0 0.0
2016-Jun-08 12:33N 30°01' W 093°60'0 0.0
2016-Jun-08 11:33N 30°01' W 093°60'0 0.0
2016-Jun-08 10:30N 30°01' W 093°60'0 0.0
2016-Jun-08 09:23N 30°01' W 093°60'0 0.0
2016-Jun-08 06:27N 30°01' W 093°60'0 0.0
2016-Jun-08 04:29N 30°01' W 093°60'0 0.0
2016-Jun-08 01:05N 30°01' W 093°60'0 0.0
2016-Jun-08 00:30N 30°01' W 093°60'2 2.4
2016-Jun-07 23:33N 30°00' W 093°57'5 4.6
2016-Jun-07 22:33N 29°59' W 093°52'5 5.5
2016-Jun-07 21:33N 29°54' W 093°54'6 5.7
2016-Jun-07 20:32N 29°48' W 093°57'7 7.0
2016-Jun-07 19:29N 29°43' W 093°52'30 1.0
2016-Jun-06 13:29N 29°14' W 093°43'0 0.0
2016-Jun-06 12:20N 29°14' W 093°43'  
2016-Jun-03 06:26N 29°14' W 093°43'0 0.0
2016-Jun-03 05:26N 29°14' W 093°43'0 0.0
2016-Jun-03 04:32N 29°14' W 093°43'0 0.1
2016-Jun-03 03:32N 29°14' W 093°43'  

Dump ship's entire track history